createdAt,value
2023-04-26T05:01:55.958Z,97773.09
2023-04-26T05:06:57.695Z,97785.91
2023-04-26T05:11:59.323Z,97786.72
2023-04-26T05:17:01.615Z,97786.28
2023-04-26T05:22:03.575Z,97793.34
2023-04-26T05:27:07.290Z,97789.56
2023-04-26T05:32:28.983Z,97792.34
2023-04-26T05:37:48.718Z,97802.44
2023-04-26T05:42:51.129Z,97806.50
2023-04-26T05:47:52.882Z,97821.63
2023-04-26T05:52:54.489Z,97820.75
2023-04-26T05:57:55.982Z,97823.34
2023-04-26T06:02:58.316Z,97830.69
2023-04-26T06:08:01.390Z,97828.34
2023-04-26T06:13:03.339Z,97828.81
2023-04-26T06:18:08.601Z,97826.38
2023-04-26T06:23:10.244Z,97835.50
2023-04-26T06:28:12.555Z,97822.63
2023-04-26T06:33:14.129Z,97837.03
2023-04-26T06:38:15.692Z,97836.97
2023-04-26T06:43:18.003Z,97836.06
2023-04-26T06:48:35.045Z,97833.34
2023-04-26T06:53:38.238Z,97841.28
2023-04-26T06:58:40.191Z,97855.56
2023-04-26T07:03:42.929Z,97855.78
2023-04-26T07:08:44.500Z,97849.66
2023-04-26T07:13:45.933Z,97860.72
2023-04-26T07:18:50.300Z,97867.31
2023-04-26T07:23:58.320Z,97856.56
2023-04-26T07:29:00.854Z,97852.59
2023-04-26T07:34:02.325Z,97853.78
2023-04-26T07:39:05.289Z,97852.59
2023-04-26T07:44:06.697Z,97853.66
2023-04-26T07:49:08.122Z,97864.66
2023-04-26T07:54:09.552Z,97845.19
2023-04-26T07:59:11.235Z,97852.66
2023-04-26T08:04:12.845Z,97854.84
2023-04-26T08:09:14.840Z,97859.09
2023-04-26T08:14:16.439Z,97869.28
2023-04-26T08:19:17.840Z,97863.81
2023-04-26T08:24:19.280Z,97860.97
2023-04-26T08:29:21.337Z,97872.56
2023-04-26T08:34:22.948Z,97860.06
2023-04-26T08:39:24.394Z,97865.50
2023-04-26T08:44:25.871Z,97863.66
2023-04-26T08:49:44.329Z,97863.47
2023-04-26T08:54:46.905Z,97872.03
2023-04-26T08:59:48.734Z,97870.69
2023-04-26T09:04:51.377Z,97872.88
2023-04-26T09:09:54.704Z,97871.09
2023-04-26T09:14:56.657Z,97877.53
2023-04-26T09:19:59.623Z,97878.38
2023-04-26T09:25:05.052Z,97875.50
2023-04-26T09:30:17.291Z,97885.94
2023-04-26T09:35:30.540Z,97867.69
2023-04-26T09:40:34.661Z,97884.53
2023-04-26T09:45:57.558Z,97885.50
2023-04-26T09:51:09.579Z,97878.97
2023-04-26T09:56:13.602Z,97879.66
2023-04-26T10:01:17.675Z,97880.72
2023-04-26T10:06:19.226Z,97884.72
2023-04-26T10:11:21.813Z,97881.88
2023-04-26T10:16:23.758Z,97880.34
2023-04-26T10:21:36.958Z,97893.81
2023-04-26T10:26:54.678Z,97876.47
2023-04-26T10:32:02.351Z,97877.91
2023-04-26T10:37:18.066Z,97856.66
2023-04-26T10:42:30.811Z,97873.16
2023-04-26T10:47:35.019Z,97872.91
2023-04-26T10:53:03.363Z,97879.28
2023-04-26T10:58:44.979Z,97879.00
2023-04-26T11:04:06.670Z,97877.00
2023-04-26T11:09:41.269Z,97877.69
2023-04-26T11:14:43.284Z,97883.63
2023-04-26T11:19:47.257Z,97871.97
2023-04-26T11:24:49.782Z,97864.56
2023-04-26T11:29:54.709Z,97864.28
2023-04-26T11:35:00.199Z,97865.03
2023-04-26T11:40:01.631Z,97870.84
2023-04-26T11:45:06.846Z,97867.09
2023-04-26T11:50:09.803Z,97864.72
2023-04-26T11:55:11.203Z,97875.69
2023-04-26T12:00:15.769Z,97878.50
2023-04-26T12:05:31.921Z,97894.16
2023-04-26T12:10:37.620Z,97885.22
2023-04-26T12:15:39.084Z,97895.88
2023-04-26T12:20:42.299Z,97889.81
2023-04-26T12:25:55.806Z,97893.25
2023-04-26T12:31:03.688Z,97886.84
2023-04-26T12:36:09.942Z,97896.53
2023-04-26T12:41:11.363Z,97912.13
2023-04-26T12:46:12.965Z,97884.44
2023-04-26T12:51:14.458Z,97890.69
2023-04-26T12:56:16.318Z,97888.25
2023-04-26T13:01:17.906Z,97890.03
2023-04-26T13:06:19.516Z,97891.50
2023-04-26T13:11:20.973Z,97891.03
2023-04-26T13:16:22.671Z,97884.09
2023-04-26T13:21:24.244Z,97882.25
2023-04-26T13:26:27.652Z,97882.56
2023-04-26T13:31:29.540Z,97877.72
2023-04-26T13:36:32.300Z,97882.69
2023-04-26T13:41:34.908Z,97885.19
2023-04-26T13:46:36.376Z,97890.44
2023-04-26T13:51:38.076Z,97888.47
2023-04-26T13:56:39.524Z,97891.19
2023-04-26T14:01:41.109Z,97896.38
2023-04-26T14:06:42.606Z,97903.59
2023-04-26T14:11:45.869Z,97889.91
2023-04-26T14:16:52.688Z,97897.09
2023-04-26T14:21:54.243Z,97903.94
2023-04-26T14:26:55.665Z,97899.94
2023-04-26T14:31:57.243Z,97906.91
2023-04-26T14:37:01.528Z,97910.34
2023-04-26T14:42:03.988Z,97904.56
2023-04-26T14:47:05.521Z,97900.28
2023-04-26T14:52:07.004Z,97911.44
2023-04-26T14:57:09.243Z,97908.50
2023-04-26T15:02:11.955Z,97917.84
2023-04-26T15:07:28.371Z,97911.72
2023-04-26T15:12:33.449Z,97905.56
2023-04-26T15:17:34.886Z,97910.03
2023-04-26T15:22:38.726Z,97898.16
2023-04-26T15:27:41.010Z,97899.09
2023-04-26T15:32:42.548Z,97903.22
2023-04-26T15:37:44.114Z,97912.72
2023-04-26T15:42:45.675Z,97910.13
2023-04-26T15:47:47.394Z,97913.34
2023-04-26T15:52:48.918Z,97923.84
2023-04-26T15:57:50.316Z,97924.72
2023-04-26T16:02:51.906Z,97912.22
2023-04-26T16:07:53.562Z,97914.03
2023-04-26T16:12:55.531Z,97913.03
2023-04-26T16:17:57.022Z,97911.22
2023-04-26T16:22:58.590Z,97921.72
2023-04-26T16:27:59.986Z,97920.91
2023-04-26T16:33:02.254Z,97912.88
2023-04-26T16:38:03.871Z,97914.16
2023-04-26T16:43:06.634Z,97910.81
2023-04-26T16:48:08.097Z,97910.31
2023-04-26T16:53:09.570Z,97916.47
2023-04-26T16:58:11.629Z,97925.50
2023-04-26T17:03:13.671Z,97912.88
2023-04-26T17:08:16.554Z,97927.56
2023-04-26T17:13:18.195Z,97933.22
2023-04-26T17:18:19.922Z,97930.06
2023-04-26T17:23:21.410Z,97944.72
2023-04-26T17:28:22.845Z,97947.22
2023-04-26T17:33:25.791Z,97949.19
2023-04-26T17:38:27.106Z,97939.22
2023-04-26T17:43:28.579Z,97952.53
2023-04-26T17:48:30.065Z,97950.34
2023-04-26T17:53:31.582Z,97951.53
2023-04-26T17:58:33.186Z,97950.19
2023-04-26T18:03:35.770Z,97957.16
2023-04-26T18:08:37.529Z,97955.16
2023-04-26T18:13:38.953Z,97960.28
2023-04-26T18:18:40.364Z,97959.44
2023-04-26T18:23:42.175Z,97964.69
2023-04-26T18:28:45.954Z,97973.97
2023-04-26T18:33:48.353Z,97972.97
2023-04-26T18:38:50.030Z,97970.63
2023-04-26T18:43:53.411Z,97979.75
2023-04-26T18:48:54.805Z,97979.91
2023-04-26T18:53:56.847Z,97985.38
2023-04-26T18:58:58.397Z,97988.53
2023-04-26T19:04:00.028Z,97993.84
2023-04-26T19:09:01.569Z,97996.50
2023-04-26T19:14:03.083Z,98003.41
2023-04-26T19:19:05.512Z,97997.78
2023-04-26T19:24:07.330Z,98006.13
2023-04-26T19:29:09.911Z,98005.47
2023-04-26T19:34:12.847Z,98007.97
2023-04-26T19:39:16.397Z,98005.81
2023-04-26T19:44:17.922Z,98006.69
2023-04-26T19:49:19.329Z,98006.16
2023-04-26T19:54:20.946Z,98009.47
2023-04-26T19:59:22.412Z,98007.78
2023-04-26T20:04:24.045Z,98022.88
2023-04-26T20:09:25.571Z,98021.34
2023-04-26T20:14:27.521Z,98018.59
2023-04-26T20:19:29.183Z,98013.38
2023-04-26T20:24:30.664Z,98013.03
2023-04-26T20:29:32.203Z,98012.81
2023-04-26T20:34:33.675Z,98013.38
2023-04-26T20:39:35.947Z,97994.72
2023-04-26T20:44:37.372Z,97998.91
2023-04-26T20:49:39.123Z,97999.00
2023-04-26T20:54:40.568Z,98006.16
2023-04-26T20:59:42.054Z,98006.25
2023-04-26T21:04:43.747Z,98006.09
2023-04-26T21:09:45.274Z,98009.25
2023-04-26T21:14:47.742Z,98010.44
2023-04-26T21:19:49.197Z,98014.97
2023-04-26T21:24:51.858Z,98022.13
2023-04-26T21:29:53.249Z,98022.31
2023-04-26T21:34:54.674Z,98020.53
2023-04-26T21:39:56.176Z,98025.47
2023-04-26T21:44:57.610Z,98034.91
2023-04-26T21:49:59.075Z,98032.00
2023-04-26T21:55:01.172Z,98035.75
